Time;durP1;ratioP1;P1;durP2;ratioP2;P2;SDS_P1;SDS_P2;PMS_P1;PMS_P2;Temp;Humidity;BMP_temperature;BMP_pressure;BME280_temperature;BME280_humidity;BME280_pressure;Samples;Min_cycle;Max_cycle;Signal;HPM_P1;HPM_P2
2023/03/25 00:00:27;;;;;;;4.67;2.87;;;7.60;99.90;;;;;;4982825;28;20236;-74
2023/03/25 00:02:54;;;;;;;6.03;3.50;;;7.60;99.90;;;;;;4982919;28;20741;-74
2023/03/25 00:05:22;;;;;;;5.10;3.27;;;7.60;99.90;;;;;;4985117;28;20765;-74
2023/03/25 00:07:51;;;;;;;7.13;3.20;;;7.60;99.90;;;;;;4980019;28;20238;-75
2023/03/25 00:10:19;;;;;;;5.10;3.50;;;7.60;99.90;;;;;;4974566;28;20239;-76
2023/03/25 00:12:46;;;;;;;7.30;3.63;;;7.60;99.90;;;;;;4979311;28;20261;-78
2023/03/25 00:15:15;;;;;;;5.47;3.40;;;7.60;99.90;;;;;;4973120;28;20243;-79
2023/03/25 00:17:42;;;;;;;5.00;3.50;;;7.60;99.90;;;;;;4982767;28;20255;-78
2023/03/25 00:20:11;;;;;;;6.60;3.87;;;7.60;99.90;;;;;;4978169;28;20282;-75
2023/03/25 00:22:40;;;;;;;5.73;3.97;;;7.50;99.90;;;;;;4983146;28;20624;-77
2023/03/25 00:25:09;;;;;;;9.20;3.67;;;7.50;99.90;;;;;;4981854;28;20228;-77
2023/03/25 00:27:37;;;;;;;6.93;3.33;;;7.50;99.90;;;;;;4973745;28;20823;-76
2023/03/25 00:30:05;;;;;;;6.93;3.63;;;7.50;99.90;;;;;;4979809;28;20297;-76
2023/03/25 00:32:32;;;;;;;5.97;4.47;;;7.40;99.90;;;;;;4980574;28;20608;-76
2023/03/25 00:34:58;;;;;;;8.50;4.20;;;7.40;99.90;;;;;;4981986;28;20238;-75
2023/03/25 00:37:26;;;;;;;6.77;4.10;;;7.30;99.90;;;;;;4981761;28;20239;-76
2023/03/25 00:39:53;;;;;;;5.83;4.17;;;7.30;99.90;;;;;;4975842;28;20235;-76
2023/03/25 00:42:24;;;;;;;7.80;4.03;;;7.30;99.90;;;;;;4979985;28;20228;-76
2023/03/25 00:44:53;;;;;;;7.20;3.77;;;7.30;99.90;;;;;;4974933;28;20238;-76
2023/03/25 00:47:22;;;;;;;8.20;4.23;;;7.30;99.90;;;;;;4984070;28;20249;-76
2023/03/25 00:49:50;;;;;;;7.80;4.50;;;7.20;99.90;;;;;;4984442;28;20644;-76
2023/03/25 00:52:17;;;;;;;5.73;4.07;;;7.20;99.90;;;;;;4976257;28;20219;-75
2023/03/25 00:54:44;;;;;;;6.77;4.60;;;7.20;99.90;;;;;;4983739;28;20266;-76
2023/03/25 00:57:11;;;;;;;5.93;3.73;;;7.20;99.90;;;;;;4985225;28;21042;-76
2023/03/25 00:59:38;;;;;;;8.37;4.57;;;7.10;99.90;;;;;;4991174;28;20282;-76
2023/03/25 01:02:06;;;;;;;4.57;3.83;;;7.10;99.90;;;;;;4983941;28;20786;-76
2023/03/25 01:04:33;;;;;;;7.67;4.03;;;7.10;99.90;;;;;;4992300;28;20908;-76
2023/03/25 01:07:00;;;;;;;6.80;4.37;;;7.10;99.90;;;;;;4986230;28;20273;-76
2023/03/25 01:09:27;;;;;;;7.70;4.27;;;7.10;99.90;;;;;;4977900;28;20226;-76
2023/03/25 01:11:54;;;;;;;7.20;4.10;;;7.10;99.90;;;;;;4984568;28;20259;-76
2023/03/25 01:14:26;;;;;;;7.67;4.57;;;7.10;99.90;;;;;;4985102;28;20811;-76
2023/03/25 01:16:53;;;;;;;5.00;4.03;;;7.10;99.90;;;;;;4984443;28;20665;-76
2023/03/25 01:19:22;;;;;;;7.03;4.60;;;7.20;99.90;;;;;;4981949;28;20808;-76
2023/03/25 01:21:49;;;;;;;6.63;3.93;;;7.30;99.90;;;;;;4983688;28;20226;-76
2023/03/25 01:24:17;;;;;;;8.33;3.90;;;7.30;99.90;;;;;;4983392;28;20737;-75
2023/03/25 01:26:44;;;;;;;8.13;3.83;;;7.30;99.90;;;;;;4985181;28;20343;-76
2023/03/25 01:29:11;;;;;;;8.40;4.73;;;7.40;99.90;;;;;;4987261;28;20255;-76
2023/03/25 01:31:38;;;;;;;6.90;4.20;;;7.40;99.90;;;;;;4984420;28;20298;-76
2023/03/25 01:34:05;;;;;;;6.87;4.07;;;7.50;99.90;;;;;;4984045;28;20269;-76
2023/03/25 01:36:35;;;;;;;7.70;4.50;;;7.50;99.90;;;;;;4976695;28;20279;-76
2023/03/25 01:39:03;;;;;;;6.23;3.87;;;7.60;99.90;;;;;;4986341;28;20225;-76
2023/03/25 01:41:31;;;;;;;6.30;4.00;;;7.60;99.90;;;;;;4980026;28;20319;-76
2023/03/25 01:44:06;;;;;;;7.40;4.17;;;7.60;99.90;;;;;;4985306;28;20241;-76
2023/03/25 01:46:33;;;;;;;9.97;4.10;;;7.60;99.90;;;;;;4977380;28;20810;-76
2023/03/25 01:49:02;;;;;;;6.33;3.90;;;7.70;99.90;;;;;;4984162;28;20550;-75
2023/03/25 01:51:32;;;;;;;6.90;3.87;;;7.70;99.90;;;;;;4976541;28;20316;-76
2023/03/25 01:54:00;;;;;;;7.43;3.63;;;7.80;99.90;;;;;;4984317;28;20338;-75
2023/03/25 01:56:32;;;;;;;6.83;3.90;;;7.80;99.90;;;;;;4987312;28;20386;-75
2023/03/25 01:59:02;;;;;;;7.67;3.50;;;7.80;99.90;;;;;;4985041;28;20625;-76
2023/03/25 02:01:30;;;;;;;5.93;3.87;;;7.90;99.90;;;;;;4974743;28;20235;-76
2023/03/25 02:04:01;;;;;;;7.23;4.00;;;7.90;99.90;;;;;;4980386;28;20618;-76
2023/03/25 02:06:33;;;;;;;6.73;3.60;;;7.90;99.90;;;;;;4982781;28;20259;-77
2023/03/25 02:09:05;;;;;;;4.97;3.43;;;7.90;99.90;;;;;;4977934;28;20324;-76
2023/03/25 02:11:32;;;;;;;5.60;3.43;;;7.90;99.90;;;;;;4980898;28;20282;-77
2023/03/25 02:14:04;;;;;;;5.10;3.43;;;7.90;99.90;;;;;;4981833;28;20244;-76
2023/03/25 02:16:38;;;;;;;7.10;3.70;;;7.80;99.90;;;;;;4983599;28;20231;-77
2023/03/25 02:20:08;;;;;;;5.63;3.57;;;7.80;99.90;;;;;;4984354;28;20228;-76
2023/03/25 02:23:06;;;;;;;7.37;3.73;;;7.80;99.90;;;;;;4978538;28;20232;-76
2023/03/25 02:26:09;;;;;;;6.80;3.30;;;7.90;99.90;;;;;;4980542;28;20464;-76
2023/03/25 02:28:46;;;;;;;5.97;3.43;;;7.90;99.90;;;;;;4985873;28;20760;-76
2023/03/25 02:31:40;;;;;;;6.57;3.53;;;7.90;99.90;;;;;;4974121;28;20907;-76
2023/03/25 02:34:41;;;;;;;6.07;3.23;;;7.90;99.90;;;;;;4982243;28;20230;-77
2023/03/25 02:37:34;;;;;;;5.90;3.53;;;7.90;99.90;;;;;;4982572;28;20233;-76
2023/03/25 02:40:05;;;;;;;5.73;3.27;;;7.90;99.90;;;;;;4973706;28;20323;-77
2023/03/25 02:42:39;;;;;;;6.17;3.30;;;8.00;99.90;;;;;;4983360;28;20570;-76
2023/03/25 02:45:11;;;;;;;6.50;3.33;;;7.90;99.90;;;;;;4981837;28;20229;-76
2023/03/25 02:47:44;;;;;;;6.50;3.10;;;8.00;99.90;;;;;;4982800;28;20251;-76
2023/03/25 02:50:16;;;;;;;7.37;3.50;;;8.00;99.90;;;;;;4982224;28;20229;-76
2023/03/25 02:52:46;;;;;;;5.67;3.40;;;8.00;99.90;;;;;;4982433;28;20238;-75
2023/03/25 02:55:17;;;;;;;5.90;3.00;;;7.90;99.90;;;;;;4984749;28;20782;-76
2023/03/25 02:57:46;;;;;;;8.70;3.27;;;7.90;99.90;;;;;;4981905;28;20231;-76
2023/03/25 03:00:17;;;;;;;6.60;3.40;;;7.90;99.90;;;;;;4982876;28;20225;-76
2023/03/25 03:02:49;;;;;;;5.80;3.10;;;7.90;99.90;;;;;;4982020;28;20762;-76
2023/03/25 03:05:24;;;;;;;6.87;3.60;;;7.90;99.90;;;;;;4979829;28;20216;-76
2023/03/25 03:07:56;;;;;;;7.47;3.70;;;7.80;99.90;;;;;;4977868;28;20229;-76
2023/03/25 03:10:30;;;;;;;7.07;3.43;;;7.90;99.90;;;;;;4983079;28;20231;-75
2023/03/25 03:13:08;;;;;;;6.90;3.90;;;7.80;99.90;;;;;;4984823;28;20236;-75
2023/03/25 03:15:40;;;;;;;8.27;3.67;;;7.90;99.90;;;;;;4973136;28;20228;-74
2023/03/25 03:18:25;;;;;;;5.80;3.37;;;7.90;99.90;;;;;;4980276;28;20229;-75
2023/03/25 03:20:59;;;;;;;5.70;3.30;;;7.90;99.90;;;;;;4977247;28;20340;-75
2023/03/25 03:23:32;;;;;;;4.83;3.70;;;7.90;99.90;;;;;;5012849;23;20225;-82
2023/03/25 03:26:07;;;;;;;4.87;3.60;;;8.00;99.90;;;;;;4979136;28;20220;-79
2023/03/25 03:28:40;;;;;;;6.77;3.47;;;8.00;99.90;;;;;;4976519;28;20948;-81
2023/03/25 03:31:15;;;;;;;7.47;3.77;;;8.00;99.90;;;;;;4979162;28;20283;-79
2023/03/25 03:33:49;;;;;;;7.17;3.93;;;8.00;99.90;;;;;;4982745;28;20236;-80
2023/03/25 03:36:20;;;;;;;5.30;3.50;;;8.00;99.90;;;;;;4996325;28;20224;-79
2023/03/25 03:38:51;;;;;;;5.33;3.40;;;8.00;99.90;;;;;;4997567;28;20232;-80
2023/03/25 03:41:21;;;;;;;5.63;3.13;;;8.00;99.90;;;;;;5000187;28;20871;-78
2023/03/25 03:43:51;;;;;;;5.50;3.10;;;8.00;99.90;;;;;;4994241;28;20224;-79
2023/03/25 03:46:21;;;;;;;6.33;3.57;;;8.10;99.90;;;;;;4996137;28;20247;-79
2023/03/25 03:48:53;;;;;;;6.93;3.53;;;8.10;99.90;;;;;;4999775;28;20789;-79
2023/03/25 03:51:24;;;;;;;7.70;3.37;;;8.10;99.90;;;;;;4994954;28;20787;-80
2023/03/25 03:53:57;;;;;;;6.87;3.00;;;8.10;99.90;;;;;;4998800;28;20227;-79
2023/03/25 03:56:27;;;;;;;6.93;3.93;;;8.10;99.90;;;;;;4996536;28;20250;-79
2023/03/25 03:58:58;;;;;;;5.37;3.30;;;8.10;99.90;;;;;;4999113;28;20304;-80
2023/03/25 04:01:33;;;;;;;4.73;3.20;;;8.10;99.90;;;;;;5000038;28;20232;-80
2023/03/25 04:04:03;;;;;;;4.83;3.00;;;8.10;99.90;;;;;;4997324;28;20628;-82
2023/03/25 04:06:34;;;;;;;6.03;3.33;;;8.10;99.90;;;;;;4999140;28;20221;-80
2023/03/25 04:09:06;;;;;;;7.63;3.10;;;8.10;99.90;;;;;;4996218;28;20280;-80
2023/03/25 04:11:40;;;;;;;5.57;3.37;;;8.10;99.90;;;;;;4998415;28;20219;-80
2023/03/25 04:14:08;;;;;;;5.90;3.00;;;8.00;99.90;;;;;;5000067;28;20230;-80
2023/03/25 04:16:36;;;;;;;5.23;2.80;;;8.00;99.90;;;;;;4999185;28;20242;-79
2023/03/25 04:19:04;;;;;;;3.80;2.97;;;8.00;99.90;;;;;;4998812;28;20287;-79
2023/03/25 04:21:31;;;;;;;4.60;2.70;;;8.00;99.90;;;;;;4991614;28;20318;-81
2023/03/25 04:24:00;;;;;;;5.43;2.77;;;8.00;99.90;;;;;;4996943;28;20231;-79
2023/03/25 04:26:28;;;;;;;4.73;3.10;;;8.10;99.90;;;;;;5010212;28;20280;-79
2023/03/25 04:28:58;;;;;;;3.90;2.90;;;8.00;99.90;;;;;;4998830;28;20225;-81
2023/03/25 04:31:29;;;;;;;4.87;2.60;;;8.00;99.90;;;;;;4998943;28;20226;-79
2023/03/25 04:33:56;;;;;;;6.63;3.10;;;8.00;99.90;;;;;;4997323;28;20229;-79
2023/03/25 04:36:23;;;;;;;5.03;2.80;;;8.00;99.90;;;;;;5000140;28;20232;-79
2023/03/25 04:38:51;;;;;;;7.40;3.20;;;8.00;99.90;;;;;;4998132;28;20238;-79
2023/03/25 04:41:18;;;;;;;7.00;2.93;;;8.10;99.90;;;;;;4999103;28;20323;-81
2023/03/25 04:43:45;;;;;;;5.00;2.50;;;8.10;99.90;;;;;;5001088;28;20228;-79
2023/03/25 04:46:16;;;;;;;6.20;2.70;;;8.10;99.90;;;;;;5001945;28;20233;-81
2023/03/25 04:48:43;;;;;;;5.67;2.90;;;8.10;99.90;;;;;;5003253;28;20235;-80
2023/03/25 04:51:11;;;;;;;6.27;2.70;;;8.10;99.90;;;;;;5000620;28;20933;-80
2023/03/25 04:53:38;;;;;;;5.77;2.53;;;8.10;99.90;;;;;;5001655;28;20224;-83
2023/03/25 04:56:11;;;;;;;8.27;2.80;;;8.20;99.90;;;;;;4999601;28;20321;-79
2023/03/25 04:58:39;;;;;;;11.03;3.10;;;8.20;99.90;;;;;;4999662;28;20227;-81
2023/03/25 05:01:10;;;;;;;6.77;3.10;;;8.10;99.90;;;;;;5002723;28;20228;-80
2023/03/25 05:03:39;;;;;;;5.83;3.00;;;8.10;99.90;;;;;;5002293;28;20247;-80
2023/03/25 05:06:07;;;;;;;5.73;2.77;;;8.10;99.90;;;;;;5000949;28;20224;-80
2023/03/25 05:08:34;;;;;;;4.43;2.77;;;8.00;99.90;;;;;;5001231;28;20240;-80
2023/03/25 05:11:02;;;;;;;5.60;2.87;;;7.90;99.90;;;;;;5003181;28;20241;-81
2023/03/25 05:13:29;;;;;;;7.37;2.90;;;7.90;99.90;;;;;;4999692;28;20285;-80
2023/03/25 05:15:55;;;;;;;7.53;3.00;;;7.80;99.90;;;;;;4997651;28;20229;-79
2023/03/25 05:18:22;;;;;;;7.13;3.13;;;7.80;99.90;;;;;;4998679;28;20230;-80
2023/03/25 05:20:50;;;;;;;4.40;2.57;;;7.60;99.90;;;;;;4995444;28;20236;-80
2023/03/25 05:23:17;;;;;;;4.40;2.90;;;7.60;99.90;;;;;;4996488;28;20232;-80
2023/03/25 05:25:46;;;;;;;4.27;2.80;;;7.60;99.90;;;;;;4999178;28;20231;-79
2023/03/25 05:28:13;;;;;;;7.33;2.90;;;7.60;99.90;;;;;;4998365;28;20224;-79
2023/03/25 05:30:41;;;;;;;5.53;2.50;;;7.60;99.90;;;;;;4999967;28;20221;-80
2023/03/25 05:33:09;;;;;;;5.67;2.63;;;7.60;99.90;;;;;;5002124;28;20226;-79
2023/03/25 05:35:36;;;;;;;5.57;2.60;;;7.50;99.90;;;;;;4999497;28;20243;-79
2023/03/25 05:38:04;;;;;;;5.50;2.53;;;7.50;99.90;;;;;;4996528;28;20212;-79
2023/03/25 05:40:31;;;;;;;6.20;2.60;;;7.50;99.90;;;;;;5001709;28;20633;-79
2023/03/25 05:42:58;;;;;;;5.90;2.90;;;7.50;99.90;;;;;;5000550;28;20321;-80
2023/03/25 05:45:25;;;;;;;4.27;2.70;;;7.50;99.90;;;;;;4998001;28;20227;-80
2023/03/25 05:47:52;;;;;;;7.50;2.70;;;7.50;99.90;;;;;;5017755;28;20225;-80
2023/03/25 05:50:20;;;;;;;4.83;2.47;;;7.50;99.90;;;;;;5002482;28;20224;-81
2023/03/25 05:52:48;;;;;;;5.33;2.80;;;7.50;99.90;;;;;;5002820;28;20227;-82
2023/03/25 05:55:20;;;;;;;5.40;2.90;;;7.50;99.90;;;;;;4999355;28;20228;-82
2023/03/25 05:57:47;;;;;;;7.00;2.80;;;7.50;99.90;;;;;;5020059;28;20224;-83
2023/03/25 06:00:17;;;;;;;5.70;2.83;;;7.50;99.90;;;;;;5004326;28;20308;-81
2023/03/25 06:02:45;;;;;;;5.57;2.50;;;7.50;99.90;;;;;;5003016;28;20228;-80
2023/03/25 06:05:13;;;;;;;4.90;2.40;;;7.50;99.90;;;;;;5000117;28;20303;-81
2023/03/25 06:07:41;;;;;;;4.90;2.30;;;7.40;99.90;;;;;;5002109;28;20228;-81
2023/03/25 06:10:09;;;;;;;3.77;2.30;;;7.40;99.90;;;;;;5002885;28;21001;-81
2023/03/25 06:12:38;;;;;;;5.20;2.70;;;7.50;99.90;;;;;;5000048;28;20228;-81
2023/03/25 06:15:06;;;;;;;5.30;2.50;;;7.50;99.90;;;;;;5001975;28;20304;-80
2023/03/25 06:17:37;;;;;;;7.73;2.77;;;7.50;99.90;;;;;;5004322;28;20244;-80
2023/03/25 06:20:09;;;;;;;3.77;2.10;;;7.50;99.90;;;;;;5003416;28;20890;-81
2023/03/25 06:22:37;;;;;;;7.30;2.33;;;7.50;99.90;;;;;;5004262;28;20668;-84
2023/03/25 06:25:05;;;;;;;7.73;2.70;;;7.50;99.90;;;;;;5007090;28;20223;-83
2023/03/25 06:27:33;;;;;;;7.23;3.13;;;7.50;99.90;;;;;;5003351;28;20705;-83
2023/03/25 06:30:01;;;;;;;4.90;2.43;;;7.50;99.90;;;;;;4998119;28;20244;-84
2023/03/25 06:32:29;;;;;;;4.77;2.83;;;7.50;99.90;;;;;;5008000;28;20735;-83
2023/03/25 06:34:56;;;;;;;7.80;3.10;;;7.60;99.90;;;;;;5007373;28;20231;-83
2023/03/25 06:37:24;;;;;;;9.07;3.03;;;7.60;99.90;;;;;;5008615;28;20610;-85
2023/03/25 06:39:55;;;;;;;6.83;3.13;;;7.70;99.90;;;;;;5003604;28;20265;-83
2023/03/25 06:42:23;;;;;;;5.60;2.93;;;7.70;99.90;;;;;;5002278;28;20225;-84
2023/03/25 06:45:11;;;;;;;7.40;3.53;;;7.70;99.90;;;;;;4998128;28;20236;-84
2023/03/25 06:47:42;;;;;;;6.27;3.20;;;7.70;99.90;;;;;;5006348;28;20242;-84
2023/03/25 06:50:10;;;;;;;6.20;3.40;;;7.80;99.90;;;;;;5004192;28;20226;-83
2023/03/25 06:52:36;;;;;;;10.60;3.57;;;7.80;99.90;;;;;;5009065;28;20224;-83
2023/03/25 06:55:03;;;;;;;7.40;3.17;;;7.80;99.90;;;;;;5005791;28;20570;-85
2023/03/25 06:57:30;;;;;;;8.30;3.40;;;7.80;99.90;;;;;;5001463;28;20240;-84
2023/03/25 06:59:57;;;;;;;6.03;3.40;;;7.90;99.90;;;;;;5001366;28;20821;-83
2023/03/25 07:02:25;;;;;;;8.23;3.10;;;7.90;99.90;;;;;;5003675;28;20256;-85
2023/03/25 07:04:52;;;;;;;7.93;3.67;;;7.90;99.90;;;;;;5002685;28;20223;-85
2023/03/25 07:07:18;;;;;;;6.67;3.00;;;7.90;99.90;;;;;;5023526;28;20221;-83
2023/03/25 07:09:45;;;;;;;6.63;3.20;;;7.90;99.90;;;;;;5006711;28;20240;-84
2023/03/25 07:12:11;;;;;;;7.57;3.07;;;7.90;99.90;;;;;;5008837;28;20224;-84
2023/03/25 07:14:38;;;;;;;5.40;2.73;;;8.00;99.90;;;;;;5005710;28;20232;-84
2023/03/25 07:17:05;;;;;;;5.43;2.73;;;8.00;99.90;;;;;;5004379;28;20874;-85
2023/03/25 07:19:33;;;;;;;6.53;2.37;;;8.00;99.90;;;;;;5004548;28;20816;-84
2023/03/25 07:22:00;;;;;;;7.77;2.70;;;8.00;99.90;;;;;;5007082;28;20311;-86
2023/03/25 07:24:26;;;;;;;6.10;3.17;;;8.00;99.90;;;;;;5001347;28;20248;-84
2023/03/25 07:26:53;;;;;;;8.40;3.07;;;8.00;99.90;;;;;;5007811;28;20699;-83
2023/03/25 07:29:24;;;;;;;7.33;3.43;;;7.90;99.90;;;;;;5005880;28;20255;-84
2023/03/25 07:31:50;;;;;;;8.90;3.80;;;7.90;99.90;;;;;;5007862;28;20247;-84
2023/03/25 07:34:17;;;;;;;8.90;3.67;;;8.00;99.90;;;;;;5007442;28;20320;-84
2023/03/25 07:36:45;;;;;;;6.00;3.10;;;8.00;99.90;;;;;;5008522;28;20724;-84
2023/03/25 07:39:12;;;;;;;6.80;3.50;;;8.00;99.90;;;;;;5008563;28;20225;-84
2023/03/25 07:41:38;;;;;;;8.13;3.47;;;8.10;99.90;;;;;;5008488;28;20263;-84
2023/03/25 07:44:23;;;;;;;7.77;3.50;;;8.20;99.90;;;;;;5016848;28;20331;-83
2023/03/25 07:46:50;;;;;;;7.23;2.90;;;8.30;99.90;;;;;;5010894;28;20307;-84
2023/03/25 07:49:17;;;;;;;7.03;3.10;;;8.40;99.90;;;;;;5008719;28;20224;-83
2023/03/25 07:51:45;;;;;;;9.30;3.10;;;8.50;99.90;;;;;;5001674;28;20237;-85
2023/03/25 07:54:12;;;;;;;8.13;3.43;;;8.60;99.90;;;;;;5006705;28;20696;-84
2023/03/25 07:56:39;;;;;;;7.73;2.73;;;8.70;99.90;;;;;;5007233;28;20236;-84
2023/03/25 07:59:05;;;;;;;6.07;2.57;;;8.80;99.90;;;;;;4999294;28;20225;-83
2023/03/25 08:01:32;;;;;;;5.90;2.10;;;8.90;99.90;;;;;;5010640;28;20786;-84
2023/03/25 08:03:59;;;;;;;6.43;2.80;;;9.00;99.90;;;;;;5007043;28;20219;-84
2023/03/25 08:06:26;;;;;;;7.20;2.70;;;9.00;99.90;;;;;;5004151;28;20334;-82
2023/03/25 08:08:54;;;;;;;6.57;2.40;;;9.10;99.90;;;;;;5004638;28;20256;-83
2023/03/25 08:11:21;;;;;;;4.27;2.07;;;9.20;99.90;;;;;;5004830;28;20607;-83
2023/03/25 08:13:47;;;;;;;5.07;2.10;;;9.30;99.90;;;;;;5006054;28;20601;-81
2023/03/25 08:16:15;;;;;;;6.70;2.27;;;9.40;99.90;;;;;;5006727;28;20417;-83
2023/03/25 08:18:43;;;;;;;5.27;2.20;;;9.50;99.90;;;;;;5018483;28;20267;-82
2023/03/25 08:21:10;;;;;;;7.77;2.40;;;9.60;99.90;;;;;;5006562;28;20220;-83
2023/03/25 08:23:37;;;;;;;5.67;2.03;;;9.60;99.90;;;;;;5006168;28;20262;-84
2023/03/25 08:26:05;;;;;;;5.13;2.10;;;9.60;99.90;;;;;;5004408;28;20233;-82
2023/03/25 08:28:32;;;;;;;7.43;2.50;;;9.70;99.90;;;;;;5001819;28;20232;-84
2023/03/25 08:31:01;;;;;;;4.87;1.87;;;9.70;99.90;;;;;;5003583;28;20853;-83
2023/03/25 08:33:32;;;;;;;5.23;2.20;;;9.70;99.90;;;;;;4999378;28;20232;-83
2023/03/25 08:35:59;;;;;;;6.90;2.50;;;9.70;99.90;;;;;;4999055;28;20324;-82
2023/03/25 08:38:30;;;;;;;5.10;2.30;;;9.90;99.90;;;;;;4998359;28;20229;-82
2023/03/25 08:40:57;;;;;;;5.40;2.00;;;10.20;99.90;;;;;;5002329;28;20272;-81
2023/03/25 08:43:25;;;;;;;6.33;2.13;;;10.60;99.90;;;;;;5003136;28;20272;-81
2023/03/25 08:45:52;;;;;;;4.93;1.93;;;11.00;99.90;;;;;;5002448;28;20221;-81
2023/03/25 08:48:19;;;;;;;6.10;1.93;;;11.20;99.90;;;;;;4999300;28;20233;-80
2023/03/25 08:50:46;;;;;;;3.43;1.63;;;11.30;99.90;;;;;;4999862;28;20260;-80
2023/03/25 08:53:12;;;;;;;4.20;1.83;;;11.40;99.90;;;;;;4997021;28;20233;-80
2023/03/25 08:55:39;;;;;;;6.43;1.60;;;11.30;99.90;;;;;;4997825;28;20238;-80
2023/03/25 08:58:07;;;;;;;5.70;2.03;;;11.20;99.90;;;;;;5002162;28;20245;-79
2023/03/25 09:00:36;;;;;;;4.47;1.60;;;11.10;99.90;;;;;;5000420;28;20229;-80
2023/03/25 09:03:03;;;;;;;4.43;1.60;;;11.00;99.90;;;;;;4986830;28;20236;-80
2023/03/25 09:05:30;;;;;;;5.27;1.97;;;10.80;99.90;;;;;;5008534;28;20237;-80
2023/03/25 09:07:57;;;;;;;4.37;1.80;;;10.60;99.90;;;;;;5020386;28;20236;-80
2023/03/25 09:10:24;;;;;;;9.50;1.87;;;10.50;99.90;;;;;;5006753;28;21221;-80
2023/03/25 09:12:51;;;;;;;6.03;2.20;;;10.30;99.90;;;;;;5008104;28;20233;-80
2023/03/25 09:15:18;;;;;;;3.43;1.37;;;10.20;99.90;;;;;;5007513;28;20240;-80
2023/03/25 09:17:46;;;;;;;3.60;2.07;;;10.00;99.90;;;;;;5006816;28;20229;-80
2023/03/25 09:20:13;;;;;;;6.20;2.27;;;9.80;99.90;;;;;;5006007;28;20222;-80
2023/03/25 09:22:40;;;;;;;4.83;1.77;;;9.60;99.90;;;;;;5008498;28;20722;-79
2023/03/25 09:25:08;;;;;;;6.23;1.87;;;9.40;99.90;;;;;;5008371;28;20229;-78
2023/03/25 09:27:35;;;;;;;2.70;1.40;;;9.20;99.90;;;;;;5000969;28;20249;-78
2023/03/25 09:30:02;;;;;;;2.67;1.40;;;9.10;99.90;;;;;;5023658;28;20224;-78
2023/03/25 09:32:29;;;;;;;4.40;1.40;;;8.90;99.90;;;;;;5004766;28;20231;-78
2023/03/25 09:34:57;;;;;;;3.00;1.10;;;8.80;99.90;;;;;;5005784;28;20238;-78
2023/03/25 09:37:24;;;;;;;3.97;1.50;;;8.70;99.90;;;;;;5006220;28;20260;-78
2023/03/25 09:39:51;;;;;;;3.13;1.40;;;8.60;99.90;;;;;;5007263;28;20225;-78
2023/03/25 09:42:37;;;;;;;3.67;1.80;;;8.50;99.90;;;;;;5006016;28;20729;-78
2023/03/25 09:45:15;;;;;;;3.43;1.60;;;8.50;99.90;;;;;;5005470;28;20576;-78
2023/03/25 09:47:50;;;;;;;3.07;1.50;;;8.40;99.90;;;;;;4999560;28;20247;-78
2023/03/25 09:50:19;;;;;;;4.83;1.60;;;8.30;99.90;;;;;;5006679;28;20239;-78
2023/03/25 09:52:52;;;;;;;2.33;1.10;;;8.30;99.90;;;;;;5002311;28;21230;-78
2023/03/25 09:55:25;;;;;;;3.40;1.03;;;8.20;99.90;;;;;;4999159;28;20229;-78
2023/03/25 09:57:57;;;;;;;4.80;1.17;;;8.20;99.90;;;;;;5012075;28;20232;-77
2023/03/25 10:00:25;;;;;;;3.40;1.30;;;8.20;99.90;;;;;;5000824;28;20319;-78
2023/03/25 10:03:02;;;;;;;4.47;1.70;;;8.10;99.90;;;;;;5014932;28;20227;-78
2023/03/25 10:05:55;;;;;;;3.30;1.30;;;8.10;99.90;;;;;;5006247;28;21290;-78
2023/03/25 10:08:31;;;;;;;3.57;1.20;;;8.00;99.90;;;;;;5023813;28;20247;-78
2023/03/25 10:11:05;;;;;;;4.13;1.53;;;8.00;99.90;;;;;;5004127;28;20216;-78
2023/03/25 10:13:39;;;;;;;5.60;1.70;;;7.90;99.90;;;;;;5002132;28;20231;-78
2023/03/25 10:16:16;;;;;;;2.90;1.30;;;7.90;99.90;;;;;;5005272;28;20224;-78
2023/03/25 10:18:55;;;;;;;4.77;1.07;;;7.90;99.90;;;;;;4999149;28;20257;-77
2023/03/25 10:21:31;;;;;;;2.33;1.20;;;7.90;99.90;;;;;;5022616;28;20234;-78
2023/03/25 10:24:06;;;;;;;3.80;1.10;;;7.90;99.90;;;;;;5006845;28;20227;-78
2023/03/25 10:26:42;;;;;;;4.47;1.50;;;8.00;99.90;;;;;;5019499;28;20262;-78
2023/03/25 10:29:14;;;;;;;3.57;1.30;;;8.20;99.90;;;;;;5002985;28;20225;-78
2023/03/25 10:31:51;;;;;;;3.17;1.53;;;8.40;99.90;;;;;;5003571;28;20243;-78
2023/03/25 10:34:23;;;;;;;2.83;1.70;;;8.70;99.90;;;;;;5002160;28;20751;-78
2023/03/25 10:36:56;;;;;;;1.90;1.27;;;9.20;99.90;;;;;;4995117;28;20232;-78
2023/03/25 10:39:32;;;;;;;2.80;1.30;;;9.70;99.90;;;;;;5013954;28;20225;-79
2023/03/25 10:42:03;;;;;;;5.07;1.63;;;10.30;99.90;;;;;;5003100;28;20221;-78
2023/03/25 10:44:30;;;;;;;4.53;2.00;;;10.90;99.90;;;;;;5000776;28;20963;-80
2023/03/25 10:47:00;;;;;;;3.87;1.60;;;11.40;99.90;;;;;;5002767;28;20227;-80
2023/03/25 10:49:29;;;;;;;5.60;1.90;;;11.80;99.90;;;;;;5000651;28;20230;-79
2023/03/25 10:51:59;;;;;;;4.03;1.87;;;12.10;99.90;;;;;;5002388;28;20233;-79
2023/03/25 10:54:30;;;;;;;7.13;1.90;;;12.30;99.90;;;;;;5000727;28;20240;-79
2023/03/25 10:57:01;;;;;;;8.40;1.70;;;12.40;99.90;;;;;;5001208;28;20226;-79
2023/03/25 10:59:33;;;;;;;7.73;1.90;;;12.40;99.90;;;;;;4998933;28;20227;-79
2023/03/25 11:02:11;;;;;;;3.70;1.47;;;12.40;99.90;;;;;;5000498;28;21091;-80
2023/03/25 11:04:43;;;;;;;4.37;2.00;;;12.30;99.90;;;;;;5002180;28;20230;-79
2023/03/25 11:07:19;;;;;;;6.87;2.30;;;12.20;99.90;;;;;;5004869;28;20220;-79
2023/03/25 11:09:46;;;;;;;7.17;1.70;;;12.10;99.90;;;;;;4996367;28;20719;-79
2023/03/25 11:12:18;;;;;;;4.13;1.83;;;12.10;99.90;;;;;;5002874;28;20242;-79
2023/03/25 11:14:53;;;;;;;5.70;1.43;;;12.00;99.90;;;;;;5003552;28;20230;-81
2023/03/25 11:17:24;;;;;;;6.73;1.73;;;11.90;99.90;;;;;;5014338;28;20229;-81
2023/03/25 11:19:55;;;;;;;6.37;2.00;;;11.80;99.90;;;;;;5003736;28;20228;-81
2023/03/25 11:22:27;;;;;;;4.90;1.80;;;11.70;99.90;;;;;;5002526;28;20269;-81
2023/03/25 11:25:00;;;;;;;5.37;2.00;;;11.50;99.90;;;;;;5002704;28;20761;-81
2023/03/25 11:27:29;;;;;;;9.00;1.90;;;11.30;99.90;;;;;;5005035;28;20225;-81
2023/03/25 11:29:59;;;;;;;6.23;1.80;;;11.10;99.90;;;;;;5008498;28;20221;-80
2023/03/25 11:32:33;;;;;;;5.17;1.60;;;10.90;99.90;;;;;;5007952;28;20239;-80
2023/03/25 11:35:02;;;;;;;3.07;1.30;;;10.60;99.90;;;;;;5007679;28;20224;-79
2023/03/25 11:37:31;;;;;;;4.83;1.30;;;10.40;99.90;;;;;;5005307;28;20569;-80
2023/03/25 11:40:05;;;;;;;2.60;1.30;;;10.20;99.90;;;;;;5012368;28;20226;-79
2023/03/25 11:42:35;;;;;;;2.37;1.20;;;10.00;99.90;;;;;;5007475;28;20230;-79
2023/03/25 11:45:03;;;;;;;2.47;1.00;;;9.90;99.90;;;;;;5010239;28;20586;-79
2023/03/25 11:47:33;;;;;;;2.97;1.40;;;9.70;99.90;;;;;;5004815;28;20318;-79
2023/03/25 11:50:00;;;;;;;3.33;1.20;;;9.60;99.90;;;;;;5010597;28;20221;-80
2023/03/25 11:52:35;;;;;;;3.23;1.00;;;9.60;99.90;;;;;;5005896;28;20255;-78
2023/03/25 11:55:02;;;;;;;3.50;1.10;;;9.60;99.90;;;;;;5003620;28;20237;-78
2023/03/25 11:57:38;;;;;;;2.80;1.00;;;9.70;99.90;;;;;;5006103;28;21304;-78
2023/03/25 12:00:17;;;;;;;3.70;1.20;;;9.70;99.90;;;;;;4998827;28;20213;-78
2023/03/25 12:02:44;;;;;;;2.53;1.40;;;9.80;99.90;;;;;;4998892;28;20230;-78
2023/03/25 12:05:15;;;;;;;2.97;1.17;;;9.90;99.90;;;;;;5014367;28;20232;-78
2023/03/25 12:07:45;;;;;;;3.73;1.20;;;10.00;99.90;;;;;;5002504;28;20287;-78
2023/03/25 12:10:18;;;;;;;2.20;1.10;;;10.20;99.90;;;;;;5002891;28;20222;-78
2023/03/25 12:12:56;;;;;;;2.80;1.00;;;10.30;99.90;;;;;;5002296;28;20226;-78
2023/03/25 12:15:32;;;;;;;2.10;1.13;;;10.50;99.90;;;;;;5002678;28;20221;-78
2023/03/25 12:18:11;;;;;;;1.33;1.10;;;10.70;99.90;;;;;;5000236;28;20222;-78
2023/03/25 12:20:48;;;;;;;3.00;1.00;;;10.80;99.90;;;;;;5000022;28;20591;-77
2023/03/25 12:23:24;;;;;;;4.57;1.30;;;11.00;99.90;;;;;;4998966;28;20225;-78
2023/03/25 12:25:58;;;;;;;1.97;0.90;;;11.10;99.90;;;;;;5015719;28;20277;-79
2023/03/25 12:28:58;;;;;;;2.37;1.03;;;11.10;99.90;;;;;;5000927;28;20227;-78
2023/03/25 12:31:38;;;;;;;2.60;1.00;;;11.00;99.90;;;;;;4955701;28;20288;-78
2023/03/25 12:34:15;;;;;;;3.33;1.00;;;10.90;99.90;;;;;;5015621;28;20225;-78
2023/03/25 12:36:53;;;;;;;2.93;1.00;;;10.80;99.90;;;;;;5001114;28;20770;-78
2023/03/25 12:39:43;;;;;;;2.77;1.17;;;10.70;99.90;;;;;;5003449;28;20853;-78
2023/03/25 12:42:23;;;;;;;3.57;1.10;;;10.60;99.90;;;;;;5007154;28;20336;-78
2023/03/25 12:45:04;;;;;;;4.77;1.50;;;10.50;99.90;;;;;;5005082;28;20240;-78
2023/03/25 12:47:35;;;;;;;4.10;1.50;;;10.60;99.90;;;;;;5002414;28;20233;-78
2023/03/25 12:50:23;;;;;;;3.43;1.17;;;10.70;99.90;;;;;;5006601;28;20215;-78
2023/03/25 12:52:56;;;;;;;7.00;1.70;;;10.70;99.90;;;;;;5001843;28;20223;-78
2023/03/25 12:55:52;;;;;;;3.80;1.30;;;10.80;99.90;;;;;;5003111;28;20230;-78
2023/03/25 12:58:43;;;;;;;3.53;1.13;;;10.80;99.90;;;;;;5002693;28;20841;-78
2023/03/25 13:01:18;;;;;;;5.17;1.53;;;10.80;99.90;;;;;;5004802;28;20222;-78
2023/03/25 13:04:01;;;;;;;3.67;1.63;;;10.80;99.90;;;;;;5001448;28;20846;-78
2023/03/25 13:06:33;;;;;;;4.43;1.90;;;10.70;99.90;;;;;;5005084;28;20656;-78
2023/03/25 13:09:04;;;;;;;5.37;1.77;;;10.60;99.90;;;;;;5006378;28;20235;-78
2023/03/25 13:11:38;;;;;;;5.43;1.90;;;10.40;99.90;;;;;;5005534;28;20240;-78
2023/03/25 13:14:11;;;;;;;4.50;1.83;;;10.30;99.90;;;;;;5003893;28;20710;-78